sensor_id;sensor_type;location;lat;lon;timestamp;P1;durP1;ratioP1;P2;durP2;ratioP2
8165;SDS011;4124;50.856;3.634;2022-09-12T00:00:06;4.17;;;2.57;;
8165;SDS011;4124;50.856;3.634;2022-09-12T00:02:32;2.60;;;2.40;;
8165;SDS011;4124;50.856;3.634;2022-09-12T00:04:57;2.63;;;2.43;;
8165;SDS011;4124;50.856;3.634;2022-09-12T00:07:24;2.77;;;2.57;;
8165;SDS011;4124;50.856;3.634;2022-09-12T00:09:49;3.50;;;2.60;;
8165;SDS011;4124;50.856;3.634;2022-09-12T00:12:14;2.47;;;2.27;;
8165;SDS011;4124;50.856;3.634;2022-09-12T00:14:40;3.17;;;2.53;;
8165;SDS011;4124;50.856;3.634;2022-09-12T00:17:05;2.73;;;2.53;;
8165;SDS011;4124;50.856;3.634;2022-09-12T00:19:30;2.70;;;2.33;;
8165;SDS011;4124;50.856;3.634;2022-09-12T00:21:55;2.47;;;2.27;;
8165;SDS011;4124;50.856;3.634;2022-09-12T00:24:20;3.93;;;2.37;;
8165;SDS011;4124;50.856;3.634;2022-09-12T00:26:46;3.37;;;2.70;;
8165;SDS011;4124;50.856;3.634;2022-09-12T00:29:15;2.93;;;2.40;;
8165;SDS011;4124;50.856;3.634;2022-09-12T00:31:41;7.67;;;2.40;;
8165;SDS011;4124;50.856;3.634;2022-09-12T00:34:06;2.60;;;2.40;;
8165;SDS011;4124;50.856;3.634;2022-09-12T00:36:31;2.60;;;2.40;;
8165;SDS011;4124;50.856;3.634;2022-09-12T00:38:57;3.33;;;2.70;;
8165;SDS011;4124;50.856;3.634;2022-09-12T00:43:48;2.97;;;2.37;;
8165;SDS011;4124;50.856;3.634;2022-09-12T00:49:22;2.93;;;2.63;;
8165;SDS011;4124;50.856;3.634;2022-09-12T00:51:49;2.10;;;2.00;;
8165;SDS011;4124;50.856;3.634;2022-09-12T00:54:16;2.57;;;2.20;;
8165;SDS011;4124;50.856;3.634;2022-09-12T00:56:42;3.83;;;2.37;;
8165;SDS011;4124;50.856;3.634;2022-09-12T00:59:12;4.77;;;2.60;;
8165;SDS011;4124;50.856;3.634;2022-09-12T01:01:39;5.40;;;2.20;;
8165;SDS011;4124;50.856;3.634;2022-09-12T01:04:06;3.87;;;2.47;;
8165;SDS011;4124;50.856;3.634;2022-09-12T01:06:34;2.43;;;2.23;;
8165;SDS011;4124;50.856;3.634;2022-09-12T01:09:00;2.33;;;2.13;;
8165;SDS011;4124;50.856;3.634;2022-09-12T01:11:28;2.40;;;2.20;;
8165;SDS011;4124;50.856;3.634;2022-09-12T01:13:54;2.60;;;2.30;;
8165;SDS011;4124;50.856;3.634;2022-09-12T01:16:19;2.70;;;2.40;;
8165;SDS011;4124;50.856;3.634;2022-09-12T01:31:17;3.80;;;2.67;;
8165;SDS011;4124;50.856;3.634;2022-09-12T01:33:52;2.30;;;2.10;;
8165;SDS011;4124;50.856;3.634;2022-09-12T01:36:23;3.43;;;2.70;;
8165;SDS011;4124;50.856;3.634;2022-09-12T01:38:57;2.27;;;2.07;;
8165;SDS011;4124;50.856;3.634;2022-09-12T01:41:41;3.20;;;2.40;;
8165;SDS011;4124;50.856;3.634;2022-09-12T01:46:52;2.80;;;2.07;;
8165;SDS011;4124;50.856;3.634;2022-09-12T01:49:24;2.70;;;2.10;;
8165;SDS011;4124;50.856;3.634;2022-09-12T01:54:18;2.40;;;2.20;;
8165;SDS011;4124;50.856;3.634;2022-09-12T01:56:44;2.67;;;2.43;;
8165;SDS011;4124;50.856;3.634;2022-09-12T01:59:14;2.60;;;2.40;;
8165;SDS011;4124;50.856;3.634;2022-09-12T02:01:45;3.30;;;2.50;;
8165;SDS011;4124;50.856;3.634;2022-09-12T02:04:13;3.13;;;2.50;;
8165;SDS011;4124;50.856;3.634;2022-09-12T02:09:07;2.30;;;2.10;;
8165;SDS011;4124;50.856;3.634;2022-09-12T02:11:34;2.97;;;2.77;;
8165;SDS011;4124;50.856;3.634;2022-09-12T02:14:19;2.23;;;2.03;;
8165;SDS011;4124;50.856;3.634;2022-09-12T02:16:47;3.07;;;2.30;;
8165;SDS011;4124;50.856;3.634;2022-09-12T02:19:15;2.30;;;2.10;;
8165;SDS011;4124;50.856;3.634;2022-09-12T02:21:44;2.23;;;2.03;;
8165;SDS011;4124;50.856;3.634;2022-09-12T02:24:11;2.50;;;2.30;;
8165;SDS011;4124;50.856;3.634;2022-09-12T02:26:40;2.43;;;2.23;;
8165;SDS011;4124;50.856;3.634;2022-09-12T02:29:07;2.73;;;2.30;;
8165;SDS011;4124;50.856;3.634;2022-09-12T02:31:53;2.70;;;2.30;;
8165;SDS011;4124;50.856;3.634;2022-09-12T02:39:34;2.73;;;2.53;;
8165;SDS011;4124;50.856;3.634;2022-09-12T02:41:59;2.40;;;2.20;;
8165;SDS011;4124;50.856;3.634;2022-09-12T02:44:26;2.37;;;2.17;;
8165;SDS011;4124;50.856;3.634;2022-09-12T02:46:56;2.47;;;2.27;;
8165;SDS011;4124;50.856;3.634;2022-09-12T02:49:22;2.63;;;2.37;;
8165;SDS011;4124;50.856;3.634;2022-09-12T02:51:48;2.87;;;2.60;;
8165;SDS011;4124;50.856;3.634;2022-09-12T02:54:14;3.10;;;2.47;;
8165;SDS011;4124;50.856;3.634;2022-09-12T02:56:40;2.37;;;2.17;;
8165;SDS011;4124;50.856;3.634;2022-09-12T02:59:07;2.07;;;1.87;;
8165;SDS011;4124;50.856;3.634;2022-09-12T03:07:10;2.57;;;2.37;;
8165;SDS011;4124;50.856;3.634;2022-09-12T03:12:19;2.80;;;2.57;;
8165;SDS011;4124;50.856;3.634;2022-09-12T03:22:33;2.37;;;2.17;;
8165;SDS011;4124;50.856;3.634;2022-09-12T03:27:32;2.10;;;1.93;;
8165;SDS011;4124;50.856;3.634;2022-09-12T03:29:58;2.70;;;2.50;;
8165;SDS011;4124;50.856;3.634;2022-09-12T03:35:08;2.50;;;2.30;;
8165;SDS011;4124;50.856;3.634;2022-09-12T03:37:34;2.50;;;2.30;;
8165;SDS011;4124;50.856;3.634;2022-09-12T03:39:59;2.20;;;2.00;;
8165;SDS011;4124;50.856;3.634;2022-09-12T03:42:24;3.10;;;2.20;;
8165;SDS011;4124;50.856;3.634;2022-09-12T03:44:50;2.60;;;2.40;;
8165;SDS011;4124;50.856;3.634;2022-09-12T03:47:15;2.23;;;2.03;;
8165;SDS011;4124;50.856;3.634;2022-09-12T03:49:40;2.50;;;2.20;;
8165;SDS011;4124;50.856;3.634;2022-09-12T03:52:05;2.30;;;2.10;;
8165;SDS011;4124;50.856;3.634;2022-09-12T03:54:30;2.43;;;2.23;;
8165;SDS011;4124;50.856;3.634;2022-09-12T03:56:56;3.70;;;2.17;;
8165;SDS011;4124;50.856;3.634;2022-09-12T03:59:21;2.60;;;2.40;;
8165;SDS011;4124;50.856;3.634;2022-09-12T04:01:46;855.23;;;772.60;;
8165;SDS011;4124;50.856;3.634;2022-09-12T04:04:11;862.83;;;779.17;;
8165;SDS011;4124;50.856;3.634;2022-09-12T04:06:37;888.60;;;798.87;;
8165;SDS011;4124;50.856;3.634;2022-09-12T04:09:02;858.97;;;775.73;;
8165;SDS011;4124;50.856;3.634;2022-09-12T04:11:27;859.73;;;776.27;;
8165;SDS011;4124;50.856;3.634;2022-09-12T04:13:52;859.47;;;776.20;;
8165;SDS011;4124;50.856;3.634;2022-09-12T04:16:18;853.30;;;770.57;;
8165;SDS011;4124;50.856;3.634;2022-09-12T04:18:43;847.83;;;765.63;;
8165;SDS011;4124;50.856;3.634;2022-09-12T04:21:14;860.47;;;777.27;;
8165;SDS011;4124;50.856;3.634;2022-09-12T04:23:39;857.60;;;774.57;;
8165;SDS011;4124;50.856;3.634;2022-09-12T04:26:04;858.80;;;775.80;;
8165;SDS011;4124;50.856;3.634;2022-09-12T04:28:33;853.60;;;770.90;;
8165;SDS011;4124;50.856;3.634;2022-09-12T04:31:06;858.73;;;775.33;;
8165;SDS011;4124;50.856;3.634;2022-09-12T04:33:35;862.73;;;778.73;;
8165;SDS011;4124;50.856;3.634;2022-09-12T04:36:04;867.10;;;782.77;;
8165;SDS011;4124;50.856;3.634;2022-09-12T04:38:30;860.30;;;776.57;;
8165;SDS011;4124;50.856;3.634;2022-09-12T04:40:55;5.43;;;4.90;;
8165;SDS011;4124;50.856;3.634;2022-09-12T04:43:21;7.40;;;4.60;;
8165;SDS011;4124;50.856;3.634;2022-09-12T04:45:46;5.03;;;4.43;;
8165;SDS011;4124;50.856;3.634;2022-09-12T04:48:11;6.93;;;4.00;;
8165;SDS011;4124;50.856;3.634;2022-09-12T04:50:36;4.73;;;3.60;;
8165;SDS011;4124;50.856;3.634;2022-09-12T04:53:02;5.83;;;4.03;;
8165;SDS011;4124;50.856;3.634;2022-09-12T04:55:27;6.53;;;3.77;;
8165;SDS011;4124;50.856;3.634;2022-09-12T04:57:52;4.00;;;3.60;;
8165;SDS011;4124;50.856;3.634;2022-09-12T05:00:18;4.93;;;3.60;;
8165;SDS011;4124;50.856;3.634;2022-09-12T05:02:43;4.47;;;3.40;;
8165;SDS011;4124;50.856;3.634;2022-09-12T05:05:08;5.20;;;3.57;;
8165;SDS011;4124;50.856;3.634;2022-09-12T05:07:34;3.50;;;3.20;;
8165;SDS011;4124;50.856;3.634;2022-09-12T05:09:59;3.67;;;3.10;;
8165;SDS011;4124;50.856;3.634;2022-09-12T05:12:25;4.73;;;3.43;;
8165;SDS011;4124;50.856;3.634;2022-09-12T05:14:50;3.50;;;3.20;;
8165;SDS011;4124;50.856;3.634;2022-09-12T05:17:15;3.50;;;3.00;;
8165;SDS011;4124;50.856;3.634;2022-09-12T05:19:41;3.97;;;2.93;;
8165;SDS011;4124;50.856;3.634;2022-09-12T05:22:06;4.90;;;3.10;;
8165;SDS011;4124;50.856;3.634;2022-09-12T05:24:31;3.97;;;3.13;;
8165;SDS011;4124;50.856;3.634;2022-09-12T05:26:57;3.77;;;3.43;;
8165;SDS011;4124;50.856;3.634;2022-09-12T05:29:22;4.57;;;3.00;;
8165;SDS011;4124;50.856;3.634;2022-09-12T05:31:49;3.60;;;2.93;;
8165;SDS011;4124;50.856;3.634;2022-09-12T05:34:16;3.53;;;2.87;;
8165;SDS011;4124;50.856;3.634;2022-09-12T05:36:41;4.37;;;3.20;;
8165;SDS011;4124;50.856;3.634;2022-09-12T05:39:06;3.10;;;2.80;;
8165;SDS011;4124;50.856;3.634;2022-09-12T05:41:32;3.90;;;2.90;;
8165;SDS011;4124;50.856;3.634;2022-09-12T05:44:02;4.73;;;2.53;;
8165;SDS011;4124;50.856;3.634;2022-09-12T05:46:29;3.43;;;2.90;;
8165;SDS011;4124;50.856;3.634;2022-09-12T05:48:54;3.63;;;2.50;;
8165;SDS011;4124;50.856;3.634;2022-09-12T05:51:21;2.60;;;2.40;;
8165;SDS011;4124;50.856;3.634;2022-09-12T05:53:47;4.57;;;2.97;;
8165;SDS011;4124;50.856;3.634;2022-09-12T05:56:14;4.17;;;3.03;;
8165;SDS011;4124;50.856;3.634;2022-09-12T05:58:40;2.93;;;2.37;;
8165;SDS011;4124;50.856;3.634;2022-09-12T06:01:16;6.03;;;2.97;;
8165;SDS011;4124;50.856;3.634;2022-09-12T06:03:51;3.23;;;2.40;;
8165;SDS011;4124;50.856;3.634;2022-09-12T06:06:17;2.40;;;2.20;;
8165;SDS011;4124;50.856;3.634;2022-09-12T06:08:44;3.20;;;2.90;;
8165;SDS011;4124;50.856;3.634;2022-09-12T06:11:10;6.00;;;3.00;;
8165;SDS011;4124;50.856;3.634;2022-09-12T06:13:36;3.33;;;2.70;;
8165;SDS011;4124;50.856;3.634;2022-09-12T06:16:03;2.50;;;2.30;;
8165;SDS011;4124;50.856;3.634;2022-09-12T06:18:29;3.10;;;2.13;;
8165;SDS011;4124;50.856;3.634;2022-09-12T06:20:54;2.90;;;2.67;;
8165;SDS011;4124;50.856;3.634;2022-09-12T06:23:19;3.00;;;2.73;;
8165;SDS011;4124;50.856;3.634;2022-09-12T06:25:45;2.67;;;2.37;;
8165;SDS011;4124;50.856;3.634;2022-09-12T06:28:11;2.70;;;2.50;;
8165;SDS011;4124;50.856;3.634;2022-09-12T06:30:36;2.70;;;2.50;;
8165;SDS011;4124;50.856;3.634;2022-09-12T06:33:02;2.40;;;2.00;;
8165;SDS011;4124;50.856;3.634;2022-09-12T06:35:27;3.30;;;2.80;;
8165;SDS011;4124;50.856;3.634;2022-09-12T06:37:52;2.50;;;2.30;;
8165;SDS011;4124;50.856;3.634;2022-09-12T06:40:17;4.40;;;2.80;;
8165;SDS011;4124;50.856;3.634;2022-09-12T06:42:42;2.53;;;2.33;;
8165;SDS011;4124;50.856;3.634;2022-09-12T06:45:08;2.70;;;2.40;;
8165;SDS011;4124;50.856;3.634;2022-09-12T06:47:35;4.90;;;2.77;;
8165;SDS011;4124;50.856;3.634;2022-09-12T06:50:01;2.43;;;2.20;;
8165;SDS011;4124;50.856;3.634;2022-09-12T06:52:26;2.83;;;2.60;;
8165;SDS011;4124;50.856;3.634;2022-09-12T06:54:53;3.00;;;2.50;;
8165;SDS011;4124;50.856;3.634;2022-09-12T06:57:18;3.17;;;2.70;;
8165;SDS011;4124;50.856;3.634;2022-09-12T06:59:43;4.07;;;2.70;;
8165;SDS011;4124;50.856;3.634;2022-09-12T07:02:08;3.67;;;2.57;;
8165;SDS011;4124;50.856;3.634;2022-09-12T07:04:34;3.83;;;2.40;;
8165;SDS011;4124;50.856;3.634;2022-09-12T07:07:00;2.80;;;2.40;;
8165;SDS011;4124;50.856;3.634;2022-09-12T07:09:25;2.67;;;2.47;;
8165;SDS011;4124;50.856;3.634;2022-09-12T07:11:51;2.87;;;2.40;;
8165;SDS011;4124;50.856;3.634;2022-09-12T07:14:16;2.53;;;2.33;;
8165;SDS011;4124;50.856;3.634;2022-09-12T07:16:41;2.93;;;2.63;;
8165;SDS011;4124;50.856;3.634;2022-09-12T07:19:07;7.40;;;2.57;;
8165;SDS011;4124;50.856;3.634;2022-09-12T07:21:32;3.23;;;2.50;;
8165;SDS011;4124;50.856;3.634;2022-09-12T07:24:02;3.20;;;2.90;;
8165;SDS011;4124;50.856;3.634;2022-09-12T07:26:28;2.53;;;2.23;;
8165;SDS011;4124;50.856;3.634;2022-09-12T07:28:54;2.60;;;2.40;;
8165;SDS011;4124;50.856;3.634;2022-09-12T07:31:21;2.50;;;2.30;;
8165;SDS011;4124;50.856;3.634;2022-09-12T07:33:46;2.50;;;2.30;;
8165;SDS011;4124;50.856;3.634;2022-09-12T07:36:13;2.50;;;2.30;;
8165;SDS011;4124;50.856;3.634;2022-09-12T07:38:39;2.60;;;2.40;;
8165;SDS011;4124;50.856;3.634;2022-09-12T07:41:15;2.80;;;2.43;;
8165;SDS011;4124;50.856;3.634;2022-09-12T07:43:41;3.27;;;2.40;;
8165;SDS011;4124;50.856;3.634;2022-09-12T07:46:07;3.07;;;2.70;;
8165;SDS011;4124;50.856;3.634;2022-09-12T07:48:32;3.23;;;2.60;;
8165;SDS011;4124;50.856;3.634;2022-09-12T07:51:01;2.40;;;2.10;;
8165;SDS011;4124;50.856;3.634;2022-09-12T07:53:31;3.07;;;2.60;;
8165;SDS011;4124;50.856;3.634;2022-09-12T07:55:57;2.30;;;2.10;;
8165;SDS011;4124;50.856;3.634;2022-09-12T07:58:22;2.50;;;2.23;;
8165;SDS011;4124;50.856;3.634;2022-09-12T08:00:48;2.60;;;2.40;;
8165;SDS011;4124;50.856;3.634;2022-09-12T08:03:13;2.50;;;2.30;;
8165;SDS011;4124;50.856;3.634;2022-09-12T08:05:38;2.50;;;2.30;;
8165;SDS011;4124;50.856;3.634;2022-09-12T08:08:03;3.10;;;2.60;;
8165;SDS011;4124;50.856;3.634;2022-09-12T08:10:29;2.70;;;2.50;;
8165;SDS011;4124;50.856;3.634;2022-09-12T08:12:54;2.40;;;2.20;;
8165;SDS011;4124;50.856;3.634;2022-09-12T08:15:20;2.50;;;2.27;;
8165;SDS011;4124;50.856;3.634;2022-09-12T08:17:45;2.97;;;2.43;;
8165;SDS011;4124;50.856;3.634;2022-09-12T08:20:10;2.70;;;2.10;;
8165;SDS011;4124;50.856;3.634;2022-09-12T08:22:36;2.20;;;2.00;;
8165;SDS011;4124;50.856;3.634;2022-09-12T08:25:01;2.30;;;2.10;;
8165;SDS011;4124;50.856;3.634;2022-09-12T08:27:26;2.23;;;2.03;;
8165;SDS011;4124;50.856;3.634;2022-09-12T08:29:52;2.57;;;2.37;;
8165;SDS011;4124;50.856;3.634;2022-09-12T08:32:17;2.90;;;2.20;;
8165;SDS011;4124;50.856;3.634;2022-09-12T08:34:43;2.47;;;2.27;;
8165;SDS011;4124;50.856;3.634;2022-09-12T08:37:08;1.97;;;1.87;;
8165;SDS011;4124;50.856;3.634;2022-09-12T08:39:33;2.63;;;2.40;;
8165;SDS011;4124;50.856;3.634;2022-09-12T08:42:00;2.63;;;2.43;;
8165;SDS011;4124;50.856;3.634;2022-09-12T08:49:33;2.27;;;2.07;;
8165;SDS011;4124;50.856;3.634;2022-09-12T08:52:09;2.97;;;2.20;;
8165;SDS011;4124;50.856;3.634;2022-09-12T08:54:35;2.63;;;2.30;;
8165;SDS011;4124;50.856;3.634;2022-09-12T08:57:02;2.60;;;2.40;;
8165;SDS011;4124;50.856;3.634;2022-09-12T08:59:37;2.60;;;2.40;;
8165;SDS011;4124;50.856;3.634;2022-09-12T09:02:04;2.20;;;2.00;;
8165;SDS011;4124;50.856;3.634;2022-09-12T09:04:58;3.23;;;2.10;;
8165;SDS011;4124;50.856;3.634;2022-09-12T09:07:45;2.40;;;2.20;;
8165;SDS011;4124;50.856;3.634;2022-09-12T09:10:17;2.57;;;2.37;;
8165;SDS011;4124;50.856;3.634;2022-09-12T09:17:48;2.33;;;1.80;;
8165;SDS011;4124;50.856;3.634;2022-09-12T09:28:12;2.40;;;2.20;;
8165;SDS011;4124;50.856;3.634;2022-09-12T09:30:39;2.20;;;1.93;;
8165;SDS011;4124;50.856;3.634;2022-09-12T09:33:09;3.10;;;2.30;;
8165;SDS011;4124;50.856;3.634;2022-09-12T09:35:43;2.40;;;2.20;;
8165;SDS011;4124;50.856;3.634;2022-09-12T09:43:24;2.63;;;2.10;;
8165;SDS011;4124;50.856;3.634;2022-09-12T09:45:53;3.50;;;2.23;;
8165;SDS011;4124;50.856;3.634;2022-09-12T09:48:20;2.47;;;2.27;;
8165;SDS011;4124;50.856;3.634;2022-09-12T09:50:47;2.10;;;1.90;;
8165;SDS011;4124;50.856;3.634;2022-09-12T09:55:59;2.30;;;2.10;;
8165;SDS011;4124;50.856;3.634;2022-09-12T09:58:27;2.97;;;2.67;;
8165;SDS011;4124;50.856;3.634;2022-09-12T10:00:54;2.30;;;2.10;;
8165;SDS011;4124;50.856;3.634;2022-09-12T10:03:24;2.47;;;2.13;;
8165;SDS011;4124;50.856;3.634;2022-09-12T10:05:54;3.10;;;2.17;;
8165;SDS011;4124;50.856;3.634;2022-09-12T10:08:24;2.47;;;2.27;;
8165;SDS011;4124;50.856;3.634;2022-09-12T10:11:06;1.90;;;1.80;;
8165;SDS011;4124;50.856;3.634;2022-09-12T10:13:36;2.37;;;2.17;;
8165;SDS011;4124;50.856;3.634;2022-09-12T10:16:04;2.60;;;2.40;;
8165;SDS011;4124;50.856;3.634;2022-09-12T10:18:37;2.20;;;1.93;;
8165;SDS011;4124;50.856;3.634;2022-09-12T10:21:13;3.13;;;2.50;;
8165;SDS011;4124;50.856;3.634;2022-09-12T10:23:39;2.20;;;2.00;;
8165;SDS011;4124;50.856;3.634;2022-09-12T10:26:12;2.33;;;2.13;;
8165;SDS011;4124;50.856;3.634;2022-09-12T10:29:02;3.87;;;2.43;;
8165;SDS011;4124;50.856;3.634;2022-09-12T10:34:14;2.83;;;2.30;;
8165;SDS011;4124;50.856;3.634;2022-09-12T10:36:43;2.30;;;2.10;;
8165;SDS011;4124;50.856;3.634;2022-09-12T10:39:11;2.10;;;1.90;;
8165;SDS011;4124;50.856;3.634;2022-09-12T10:41:41;1.93;;;1.83;;
8165;SDS011;4124;50.856;3.634;2022-09-12T10:44:07;2.27;;;2.00;;
8165;SDS011;4124;50.856;3.634;2022-09-12T10:46:34;2.50;;;2.30;;
8165;SDS011;4124;50.856;3.634;2022-09-12T10:49:12;3.00;;;2.30;;
8165;SDS011;4124;50.856;3.634;2022-09-12T10:51:38;2.57;;;2.37;;
8165;SDS011;4124;50.856;3.634;2022-09-12T10:54:04;2.40;;;2.20;;
8165;SDS011;4124;50.856;3.634;2022-09-12T10:56:31;2.67;;;2.47;;
8165;SDS011;4124;50.856;3.634;2022-09-12T11:09:20;2.50;;;2.30;;
8165;SDS011;4124;50.856;3.634;2022-09-12T11:26:59;2.50;;;2.30;;
8165;SDS011;4124;50.856;3.634;2022-09-12T11:39:38;3.50;;;2.47;;
8165;SDS011;4124;50.856;3.634;2022-09-12T11:42:04;2.20;;;2.00;;
8165;SDS011;4124;50.856;3.634;2022-09-12T11:44:44;2.13;;;1.83;;
8165;SDS011;4124;50.856;3.634;2022-09-12T11:47:11;1.93;;;1.83;;
8165;SDS011;4124;50.856;3.634;2022-09-12T11:49:42;2.77;;;2.20;;
8165;SDS011;4124;50.856;3.634;2022-09-12T11:52:16;2.40;;;2.20;;
8165;SDS011;4124;50.856;3.634;2022-09-12T11:54:47;3.37;;;2.20;;
8165;SDS011;4124;50.856;3.634;2022-09-12T12:02:24;2.30;;;2.10;;
8165;SDS011;4124;50.856;3.634;2022-09-12T12:04:55;2.30;;;2.10;;
8165;SDS011;4124;50.856;3.634;2022-09-12T12:07:23;2.43;;;2.23;;
8165;SDS011;4124;50.856;3.634;2022-09-12T12:09:49;2.83;;;2.37;;
8165;SDS011;4124;50.856;3.634;2022-09-12T12:12:18;2.03;;;1.93;;
8165;SDS011;4124;50.856;3.634;2022-09-12T12:14:45;2.30;;;2.10;;
8165;SDS011;4124;50.856;3.634;2022-09-12T12:17:21;2.00;;;1.80;;
8165;SDS011;4124;50.856;3.634;2022-09-12T12:19:54;1.87;;;1.77;;
8165;SDS011;4124;50.856;3.634;2022-09-12T12:22:21;2.47;;;2.10;;
8165;SDS011;4124;50.856;3.634;2022-09-12T12:24:58;1.97;;;1.87;;
8165;SDS011;4124;50.856;3.634;2022-09-12T12:27:45;2.23;;;2.03;;
8165;SDS011;4124;50.856;3.634;2022-09-12T12:33:00;2.70;;;1.90;;
8165;SDS011;4124;50.856;3.634;2022-09-12T12:38:25;2.10;;;1.90;;
8165;SDS011;4124;50.856;3.634;2022-09-12T12:40:51;3.00;;;2.30;;
8165;SDS011;4124;50.856;3.634;2022-09-12T12:43:35;2.30;;;2.10;;
8165;SDS011;4124;50.856;3.634;2022-09-12T12:46:01;2.20;;;2.00;;
8165;SDS011;4124;50.856;3.634;2022-09-12T12:48:28;2.47;;;2.20;;
8165;SDS011;4124;50.856;3.634;2022-09-12T12:51:12;1.80;;;1.70;;
8165;SDS011;4124;50.856;3.634;2022-09-12T12:53:39;3.47;;;1.97;;
8165;SDS011;4124;50.856;3.634;2022-09-12T12:56:05;2.67;;;2.10;;
8165;SDS011;4124;50.856;3.634;2022-09-12T12:58:34;2.67;;;1.83;;
8165;SDS011;4124;50.856;3.634;2022-09-12T13:03:35;3.17;;;2.00;;
8165;SDS011;4124;50.856;3.634;2022-09-12T13:06:02;2.50;;;2.30;;
8165;SDS011;4124;50.856;3.634;2022-09-12T13:08:31;2.63;;;1.90;;
8165;SDS011;4124;50.856;3.634;2022-09-12T13:11:07;2.73;;;2.10;;
8165;SDS011;4124;50.856;3.634;2022-09-12T13:13:37;2.60;;;2.30;;
8165;SDS011;4124;50.856;3.634;2022-09-12T13:16:03;2.13;;;1.93;;
8165;SDS011;4124;50.856;3.634;2022-09-12T13:18:31;3.50;;;1.90;;
8165;SDS011;4124;50.856;3.634;2022-09-12T13:23:32;2.03;;;1.90;;
8165;SDS011;4124;50.856;3.634;2022-09-12T13:25:58;1.90;;;1.80;;
8165;SDS011;4124;50.856;3.634;2022-09-12T13:28:25;2.60;;;1.97;;
8165;SDS011;4124;50.856;3.634;2022-09-12T13:33:21;2.67;;;2.10;;
8165;SDS011;4124;50.856;3.634;2022-09-12T13:35:52;2.10;;;1.90;;
8165;SDS011;4124;50.856;3.634;2022-09-12T13:43:14;2.70;;;2.20;;
8165;SDS011;4124;50.856;3.634;2022-09-12T13:45:41;3.50;;;2.40;;
8165;SDS011;4124;50.856;3.634;2022-09-12T13:48:40;2.50;;;2.10;;
8165;SDS011;4124;50.856;3.634;2022-09-12T13:50:59;2.60;;;1.90;;
8165;SDS011;4124;50.856;3.634;2022-09-12T13:53:30;2.00;;;1.90;;
8165;SDS011;4124;50.856;3.634;2022-09-12T13:55:59;1.77;;;1.60;;
8165;SDS011;4124;50.856;3.634;2022-09-12T13:58:29;2.20;;;2.00;;
8165;SDS011;4124;50.856;3.634;2022-09-12T14:03:41;2.10;;;1.90;;
8165;SDS011;4124;50.856;3.634;2022-09-12T14:06:25;2.00;;;1.80;;
8165;SDS011;4124;50.856;3.634;2022-09-12T14:08:51;2.27;;;1.83;;
8165;SDS011;4124;50.856;3.634;2022-09-12T14:11:23;2.03;;;1.70;;
8165;SDS011;4124;50.856;3.634;2022-09-12T14:13:49;2.37;;;2.10;;
8165;SDS011;4124;50.856;3.634;2022-09-12T14:16:16;2.63;;;1.90;;
8165;SDS011;4124;50.856;3.634;2022-09-12T14:18:41;2.30;;;2.10;;
8165;SDS011;4124;50.856;3.634;2022-09-12T14:21:10;2.37;;;2.17;;
8165;SDS011;4124;50.856;3.634;2022-09-12T14:23:40;2.50;;;1.93;;
8165;SDS011;4124;50.856;3.634;2022-09-12T14:26:08;2.17;;;1.90;;
8165;SDS011;4124;50.856;3.634;2022-09-12T14:28:33;2.00;;;1.80;;
8165;SDS011;4124;50.856;3.634;2022-09-12T14:31:03;2.10;;;1.90;;
8165;SDS011;4124;50.856;3.634;2022-09-12T14:33:44;2.17;;;1.97;;
8165;SDS011;4124;50.856;3.634;2022-09-12T14:36:26;2.60;;;1.70;;
8165;SDS011;4124;50.856;3.634;2022-09-12T14:39:00;2.87;;;2.00;;
8165;SDS011;4124;50.856;3.634;2022-09-12T14:41:27;2.20;;;2.00;;
8165;SDS011;4124;50.856;3.634;2022-09-12T14:43:55;2.10;;;1.80;;
8165;SDS011;4124;50.856;3.634;2022-09-12T14:46:23;3.00;;;2.30;;
8165;SDS011;4124;50.856;3.634;2022-09-12T14:48:54;5.83;;;2.00;;
8165;SDS011;4124;50.856;3.634;2022-09-12T14:51:30;1.97;;;1.60;;
8165;SDS011;4124;50.856;3.634;2022-09-12T14:53:56;3.20;;;2.00;;
8165;SDS011;4124;50.856;3.634;2022-09-12T14:56:35;4.77;;;1.90;;
8165;SDS011;4124;50.856;3.634;2022-09-12T14:59:25;2.60;;;1.97;;
8165;SDS011;4124;50.856;3.634;2022-09-12T15:02:09;1.90;;;1.70;;
8165;SDS011;4124;50.856;3.634;2022-09-12T15:05:19;2.40;;;2.20;;
8165;SDS011;4124;50.856;3.634;2022-09-12T15:07:27;3.67;;;1.80;;
8165;SDS011;4124;50.856;3.634;2022-09-12T15:09:54;2.10;;;1.80;;
8165;SDS011;4124;50.856;3.634;2022-09-12T15:12:21;1.70;;;1.60;;
8165;SDS011;4124;50.856;3.634;2022-09-12T15:14:46;3.23;;;2.17;;
8165;SDS011;4124;50.856;3.634;2022-09-12T15:17:11;2.07;;;1.87;;
8165;SDS011;4124;50.856;3.634;2022-09-12T15:19:36;1.90;;;1.80;;
8165;SDS011;4124;50.856;3.634;2022-09-12T15:22:02;2.30;;;2.00;;
8165;SDS011;4124;50.856;3.634;2022-09-12T15:24:27;2.27;;;2.07;;
8165;SDS011;4124;50.856;3.634;2022-09-12T15:26:52;3.63;;;2.17;;
8165;SDS011;4124;50.856;3.634;2022-09-12T15:29:18;2.77;;;2.10;;
8165;SDS011;4124;50.856;3.634;2022-09-12T15:31:44;2.10;;;1.90;;
8165;SDS011;4124;50.856;3.634;2022-09-12T15:34:10;2.07;;;1.87;;
8165;SDS011;4124;50.856;3.634;2022-09-12T15:36:35;3.90;;;1.97;;
8165;SDS011;4124;50.856;3.634;2022-09-12T15:39:00;2.47;;;2.00;;
8165;SDS011;4124;50.856;3.634;2022-09-12T15:43:51;2.13;;;1.93;;
8165;SDS011;4124;50.856;3.634;2022-09-12T15:46:16;2.00;;;1.80;;
8165;SDS011;4124;50.856;3.634;2022-09-12T15:48:42;2.00;;;1.70;;
8165;SDS011;4124;50.856;3.634;2022-09-12T15:51:14;7.13;;;1.77;;
8165;SDS011;4124;50.856;3.634;2022-09-12T15:53:40;6.33;;;1.50;;
8165;SDS011;4124;50.856;3.634;2022-09-12T15:56:05;2.33;;;1.80;;
8165;SDS011;4124;50.856;3.634;2022-09-12T15:58:30;5.40;;;1.80;;
8165;SDS011;4124;50.856;3.634;2022-09-12T16:00:56;2.53;;;1.80;;
8165;SDS011;4124;50.856;3.634;2022-09-12T16:03:22;2.00;;;1.80;;
8165;SDS011;4124;50.856;3.634;2022-09-12T16:05:48;2.27;;;1.83;;
8165;SDS011;4124;50.856;3.634;2022-09-12T16:08:14;2.07;;;1.87;;
8165;SDS011;4124;50.856;3.634;2022-09-12T16:10:40;1.80;;;1.70;;
8165;SDS011;4124;50.856;3.634;2022-09-12T16:13:07;1.83;;;1.73;;
8165;SDS011;4124;50.856;3.634;2022-09-12T16:15:32;2.60;;;1.87;;
8165;SDS011;4124;50.856;3.634;2022-09-12T16:17:57;3.30;;;1.83;;
8165;SDS011;4124;50.856;3.634;2022-09-12T16:20:22;2.20;;;1.80;;
8165;SDS011;4124;50.856;3.634;2022-09-12T16:22:49;1.90;;;1.70;;
8165;SDS011;4124;50.856;3.634;2022-09-12T16:25:15;3.60;;;2.00;;
8165;SDS011;4124;50.856;3.634;2022-09-12T16:27:41;1.97;;;1.87;;
8165;SDS011;4124;50.856;3.634;2022-09-12T16:30:06;1.83;;;1.63;;
8165;SDS011;4124;50.856;3.634;2022-09-12T16:32:32;2.03;;;1.83;;
8165;SDS011;4124;50.856;3.634;2022-09-12T16:34:57;2.30;;;1.60;;
8165;SDS011;4124;50.856;3.634;2022-09-12T16:37:23;2.00;;;1.73;;
8165;SDS011;4124;50.856;3.634;2022-09-12T16:39:48;3.00;;;1.70;;
8165;SDS011;4124;50.856;3.634;2022-09-12T16:42:14;3.77;;;2.10;;
8165;SDS011;4124;50.856;3.634;2022-09-12T16:44:40;7.73;;;2.30;;
8165;SDS011;4124;50.856;3.634;2022-09-12T16:47:05;6.07;;;2.10;;
8165;SDS011;4124;50.856;3.634;2022-09-12T16:49:31;10.50;;;3.23;;
8165;SDS011;4124;50.856;3.634;2022-09-12T16:51:56;8.53;;;3.40;;
8165;SDS011;4124;50.856;3.634;2022-09-12T16:54:21;6.77;;;3.63;;
8165;SDS011;4124;50.856;3.634;2022-09-12T16:56:46;7.73;;;3.27;;
8165;SDS011;4124;50.856;3.634;2022-09-12T16:59:13;16.73;;;3.67;;
8165;SDS011;4124;50.856;3.634;2022-09-12T17:01:40;7.33;;;3.43;;
8165;SDS011;4124;50.856;3.634;2022-09-12T17:04:05;10.60;;;3.23;;
8165;SDS011;4124;50.856;3.634;2022-09-12T17:06:31;6.10;;;3.43;;
8165;SDS011;4124;50.856;3.634;2022-09-12T17:08:58;8.40;;;3.40;;
8165;SDS011;4124;50.856;3.634;2022-09-12T17:11:43;6.73;;;3.20;;
8165;SDS011;4124;50.856;3.634;2022-09-12T17:14:08;6.13;;;3.10;;
8165;SDS011;4124;50.856;3.634;2022-09-12T17:16:37;11.27;;;3.57;;
8165;SDS011;4124;50.856;3.634;2022-09-12T17:19:03;7.33;;;3.17;;
8165;SDS011;4124;50.856;3.634;2022-09-12T17:21:28;7.70;;;3.27;;
8165;SDS011;4124;50.856;3.634;2022-09-12T17:23:53;12.13;;;3.30;;
8165;SDS011;4124;50.856;3.634;2022-09-12T17:26:19;11.77;;;3.00;;
8165;SDS011;4124;50.856;3.634;2022-09-12T17:28:44;5.43;;;2.93;;
8165;SDS011;4124;50.856;3.634;2022-09-12T17:31:11;5.07;;;2.90;;
8165;SDS011;4124;50.856;3.634;2022-09-12T17:33:36;6.73;;;2.60;;
8165;SDS011;4124;50.856;3.634;2022-09-12T17:36:04;3.83;;;2.60;;
8165;SDS011;4124;50.856;3.634;2022-09-12T17:38:33;5.30;;;2.73;;
8165;SDS011;4124;50.856;3.634;2022-09-12T17:43:31;4.50;;;2.63;;